createdAt,value
2022-12-09T00:00:27.349Z,17.10
2022-12-09T00:05:29.547Z,16.75
2022-12-09T00:10:31.702Z,17.63
2022-12-09T00:15:34.030Z,17.35
2022-12-09T00:20:36.729Z,16.50
2022-12-09T00:25:39.059Z,18.20
2022-12-09T00:30:45.172Z,17.85
2022-12-09T00:35:47.392Z,17.20
2022-12-09T00:40:49.461Z,18.02
2022-12-09T00:45:51.642Z,17.63
2022-12-09T00:50:54.043Z,17.42
2022-12-09T00:55:56.393Z,17.75
2022-12-09T01:00:58.906Z,16.63
2022-12-09T01:06:01.202Z,18.08
2022-12-09T01:11:12.872Z,17.90
2022-12-09T01:16:20.567Z,19.25
2022-12-09T01:21:25.171Z,17.80
2022-12-09T01:26:28.045Z,18.10
2022-12-09T01:31:30.319Z,18.15
2022-12-09T01:36:32.576Z,18.30
2022-12-09T01:41:35.165Z,18.00
2022-12-09T01:46:38.184Z,17.45
2022-12-09T01:51:42.536Z,17.40
2022-12-09T01:56:44.578Z,17.67
2022-12-09T02:01:52.772Z,18.20
2022-12-09T02:06:57.963Z,18.73
2022-12-09T02:12:09.119Z,19.42
2022-12-09T02:17:17.250Z,17.63
2022-12-09T02:22:27.290Z,18.62
2022-12-09T02:27:49.160Z,18.60
2022-12-09T02:33:06.511Z,17.80
2022-12-09T02:38:28.838Z,18.48
2022-12-09T02:43:43.631Z,18.00
2022-12-09T02:48:56.107Z,18.58
2022-12-09T02:54:09.551Z,19.03
2022-12-09T02:59:11.712Z,18.25
2022-12-09T03:04:21.854Z,18.10
2022-12-09T03:09:33.053Z,18.73
2022-12-09T03:14:43.864Z,18.60
2022-12-09T03:19:52.644Z,19.13
2022-12-09T03:25:01.153Z,18.15
2022-12-09T03:30:06.194Z,18.70
2022-12-09T03:35:16.149Z,18.87
2022-12-09T03:40:24.316Z,17.98
2022-12-09T03:45:27.736Z,18.70
2022-12-09T03:50:40.736Z,18.52
2022-12-09T03:56:05.635Z,18.98
2022-12-09T04:01:08.210Z,19.83
2022-12-09T04:06:10.849Z,20.12
2022-12-09T04:11:13.107Z,20.23
2022-12-09T04:16:15.600Z,19.67
2022-12-09T04:21:17.809Z,21.52
2022-12-09T04:26:22.534Z,19.30
2022-12-09T04:31:25.081Z,21.17
2022-12-09T04:36:27.327Z,21.60
2022-12-09T04:41:29.680Z,20.85
2022-12-09T04:46:32.394Z,20.67
2022-12-09T04:51:39.612Z,20.47
2022-12-09T04:56:43.084Z,20.95
2022-12-09T05:01:45.741Z,20.13
2022-12-09T05:06:48.089Z,20.15
2022-12-09T05:11:52.501Z,20.75
2022-12-09T05:16:54.842Z,18.93
2022-12-09T05:21:57.458Z,19.77
2022-12-09T05:27:00.460Z,20.73
2022-12-09T05:32:03.004Z,20.05
2022-12-09T05:37:05.966Z,19.48
2022-12-09T05:42:08.782Z,19.20
2022-12-09T05:47:11.354Z,19.90
2022-12-09T05:52:14.539Z,21.73
2022-12-09T05:57:17.208Z,20.37
2022-12-09T06:02:19.711Z,20.75
2022-12-09T06:07:22.434Z,21.07
2022-12-09T06:12:25.086Z,20.60
2022-12-09T06:17:27.745Z,21.77
2022-12-09T06:22:30.069Z,20.65
2022-12-09T06:27:33.274Z,21.90
2022-12-09T06:32:35.910Z,21.17
2022-12-09T06:37:38.541Z,22.50
2022-12-09T06:42:40.735Z,21.53
2022-12-09T06:47:43.152Z,23.30
2022-12-09T06:52:46.049Z,25.65
2022-12-09T06:57:48.604Z,22.83
2022-12-09T07:02:51.091Z,23.80
2022-12-09T07:07:54.064Z,25.57
2022-12-09T07:12:56.856Z,23.65
2022-12-09T07:17:59.321Z,26.05
2022-12-09T07:23:01.754Z,24.83
2022-12-09T07:28:04.882Z,25.58
2022-12-09T07:33:07.187Z,25.03
2022-12-09T07:38:15.848Z,23.98
2022-12-09T07:43:18.814Z,23.67
2022-12-09T07:48:20.974Z,23.37
2022-12-09T07:53:23.659Z,23.60
2022-12-09T07:58:25.903Z,23.33
2022-12-09T08:03:28.330Z,22.58
2022-12-09T08:08:32.076Z,22.92
2022-12-09T08:13:35.286Z,22.50
2022-12-09T08:18:37.605Z,23.85
2022-12-09T08:23:40.228Z,21.73
2022-12-09T08:28:43.076Z,21.27
2022-12-09T08:33:45.933Z,20.73
2022-12-09T08:38:48.738Z,20.63
2022-12-09T08:43:51.309Z,20.65
2022-12-09T08:48:53.830Z,19.93
2022-12-09T08:53:58.694Z,17.60
2022-12-09T08:59:01.354Z,18.48
2022-12-09T09:04:10.112Z,20.37
2022-12-09T09:09:14.679Z,18.90
2022-12-09T09:14:17.644Z,17.67
2022-12-09T09:19:22.966Z,17.48
2022-12-09T09:24:26.175Z,18.15
2022-12-09T09:29:29.494Z,17.03
2022-12-09T09:34:32.034Z,17.45
2022-12-09T09:39:34.766Z,17.13
2022-12-09T09:44:43.275Z,16.05
2022-12-09T09:49:57.916Z,17.45
2022-12-09T09:55:13.196Z,17.43
2022-12-09T10:00:27.055Z,17.70
2022-12-09T10:05:37.461Z,18.00
2022-12-09T10:10:49.424Z,16.62
2022-12-09T10:16:17.949Z,16.73
2022-12-09T10:21:21.724Z,16.10
2022-12-09T10:26:27.454Z,15.88
2022-12-09T10:31:30.600Z,16.13
2022-12-09T10:36:36.030Z,16.33
2022-12-09T10:42:00.715Z,16.87
2022-12-09T10:47:06.174Z,15.10
2022-12-09T10:52:08.761Z,15.68
2022-12-09T10:57:16.491Z,15.50
2022-12-09T11:02:21.334Z,14.95
2022-12-09T11:07:28.216Z,14.63
2022-12-09T11:12:40.489Z,13.97
2022-12-09T11:17:59.859Z,14.85
2022-12-09T11:23:14.342Z,13.73
2022-12-09T11:28:16.706Z,14.93
2022-12-09T11:33:28.111Z,14.65
2022-12-09T11:38:35.247Z,15.20
2022-12-09T11:43:55.962Z,14.95
2022-12-09T11:49:27.848Z,18.07
2022-12-09T11:54:44.318Z,18.20
2022-12-09T11:59:52.087Z,16.45
2022-12-09T12:05:09.148Z,19.00
2022-12-09T12:10:34.523Z,19.48
2022-12-09T12:15:46.265Z,15.63
2022-12-09T12:20:57.294Z,15.18
2022-12-09T12:26:26.401Z,13.65
2022-12-09T12:31:53.569Z,11.23
2022-12-09T12:37:29.762Z,11.48
2022-12-09T12:43:04.226Z,11.13
2022-12-09T12:48:16.257Z,12.50
2022-12-09T12:54:04.941Z,13.32
2022-12-09T12:59:31.251Z,12.00
2022-12-09T13:04:58.360Z,11.98
2022-12-09T13:10:32.970Z,12.10
2022-12-09T13:15:56.854Z,13.25
2022-12-09T13:21:03.323Z,12.55
2022-12-09T13:26:27.335Z,12.43
2022-12-09T13:31:32.294Z,12.13
2022-12-09T13:36:46.348Z,12.97
2022-12-09T13:42:07.587Z,12.32
2022-12-09T13:47:21.983Z,12.23
2022-12-09T13:52:49.537Z,13.43
2022-12-09T13:58:22.537Z,12.45
2022-12-09T14:03:32.292Z,12.23
2022-12-09T14:08:45.715Z,12.00
2022-12-09T14:13:48.405Z,12.40
2022-12-09T14:18:50.626Z,12.23
2022-12-09T14:24:16.925Z,12.15
2022-12-09T14:29:45.001Z,13.37
2022-12-09T14:34:58.613Z,12.57
2022-12-09T14:40:25.240Z,11.90
2022-12-09T14:45:49.431Z,11.33
2022-12-09T14:51:23.879Z,12.52
2022-12-09T14:56:27.522Z,12.90
2022-12-09T15:01:29.837Z,12.40
2022-12-09T15:06:32.164Z,11.93
2022-12-09T15:11:35.912Z,12.03
2022-12-09T15:16:38.118Z,13.90
2022-12-09T15:21:40.554Z,11.87
2022-12-09T15:26:43.338Z,12.48
2022-12-09T15:31:50.984Z,11.98
2022-12-09T15:36:58.406Z,11.77
2022-12-09T15:42:13.870Z,15.07
2022-12-09T15:47:21.542Z,14.07
2022-12-09T15:52:31.390Z,12.43
2022-12-09T15:57:35.731Z,14.02
2022-12-09T16:02:40.319Z,14.20
2022-12-09T16:07:54.686Z,13.20
2022-12-09T16:13:12.090Z,13.13
2022-12-09T16:18:17.854Z,13.85
2022-12-09T16:23:23.817Z,13.02
2022-12-09T16:28:28.892Z,12.17
2022-12-09T16:33:37.013Z,12.73
2022-12-09T16:38:39.337Z,12.53
2022-12-09T16:43:55.131Z,12.20
2022-12-09T16:49:04.675Z,11.73
2022-12-09T16:54:19.749Z,13.47
2022-12-09T16:59:22.898Z,15.35
2022-12-09T17:04:29.266Z,14.77
2022-12-09T17:09:31.452Z,14.93
2022-12-09T17:14:33.697Z,13.82
2022-12-09T17:19:35.858Z,13.87
2022-12-09T17:24:38.535Z,13.95
2022-12-09T17:29:40.853Z,13.83
2022-12-09T17:34:43.052Z,14.85
2022-12-09T17:39:45.157Z,14.07
2022-12-09T17:44:47.319Z,14.77
2022-12-09T17:49:49.453Z,14.32
2022-12-09T17:54:51.620Z,13.73
2022-12-09T17:59:53.694Z,13.50
2022-12-09T18:04:55.722Z,12.95
2022-12-09T18:09:57.875Z,13.17
2022-12-09T18:15:00.162Z,11.63
2022-12-09T18:20:02.465Z,13.17
2022-12-09T18:25:05.232Z,11.85
2022-12-09T18:30:08.348Z,12.20
2022-12-09T18:35:10.868Z,12.27
2022-12-09T18:41:06.658Z,12.48
2022-12-09T18:46:16.012Z,12.17
2022-12-09T18:51:20.848Z,12.30
2022-12-09T18:56:23.043Z,11.82
2022-12-09T19:01:30.695Z,12.07
2022-12-09T19:06:35.681Z,12.98
2022-12-09T19:11:39.695Z,13.27
2022-12-09T19:16:42.834Z,12.02
2022-12-09T19:21:45.996Z,11.18
2022-12-09T19:26:48.528Z,12.53
2022-12-09T19:31:52.423Z,12.93
2022-12-09T19:36:56.890Z,12.20
2022-12-09T19:41:59.215Z,10.68
2022-12-09T19:47:01.368Z,12.15
2022-12-09T19:52:04.011Z,11.30
2022-12-09T19:57:06.582Z,11.88
2022-12-09T20:02:12.052Z,10.83
2022-12-09T20:07:14.313Z,10.70
2022-12-09T20:12:16.787Z,10.30
2022-12-09T20:17:19.035Z,11.37
2022-12-09T20:22:21.157Z,10.30
2022-12-09T20:27:25.216Z,10.23
2022-12-09T20:32:33.101Z,10.32
2022-12-09T20:37:36.199Z,9.75
2022-12-09T20:42:38.391Z,9.90
2022-12-09T20:47:40.504Z,12.13
2022-12-09T20:52:42.695Z,9.43
2022-12-09T20:57:45.023Z,11.02
2022-12-09T21:02:47.362Z,9.20
2022-12-09T21:07:49.653Z,9.13
2022-12-09T21:12:53.902Z,9.45
2022-12-09T21:17:56.262Z,8.73
2022-12-09T21:23:31.893Z,8.07
2022-12-09T21:28:20.732Z,8.95
2022-12-09T21:33:23.716Z,8.90
2022-12-09T21:38:30.423Z,9.70
2022-12-09T21:43:33.905Z,9.77
2022-12-09T21:48:36.097Z,10.13
2022-12-09T21:53:39.891Z,9.60
2022-12-09T21:58:43.244Z,10.00
2022-12-09T22:03:46.332Z,11.52
2022-12-09T22:08:48.440Z,9.93
2022-12-09T22:13:51.336Z,9.40
2022-12-09T22:18:55.277Z,8.88
2022-12-09T22:24:00.789Z,9.77
2022-12-09T22:29:05.098Z,9.90
2022-12-09T22:34:13.545Z,9.87
2022-12-09T22:39:18.292Z,9.48
2022-12-09T22:44:20.777Z,9.35
2022-12-09T22:49:22.851Z,8.27
2022-12-09T22:54:24.985Z,7.97
2022-12-09T22:59:27.470Z,7.97
2022-12-09T23:04:29.573Z,7.78
2022-12-09T23:09:31.670Z,7.62
2022-12-09T23:14:33.783Z,8.80
2022-12-09T23:19:35.922Z,9.45
2022-12-09T23:24:38.129Z,8.63
2022-12-09T23:29:40.437Z,8.32
2022-12-09T23:34:42.559Z,7.78
2022-12-09T23:39:44.735Z,7.33
2022-12-09T23:44:46.845Z,8.43
2022-12-09T23:49:49.001Z,8.73
2022-12-09T23:54:51.284Z,7.53
2022-12-09T23:59:53.700Z,8.48
